Time;durP1;ratioP1;P1;durP2;ratioP2;P2;SDS_P1;SDS_P2;PMS_P1;PMS_P2;Temp;Humidity;BMP_temperature;BMP_pressure;BME280_temperature;BME280_humidity;BME280_pressure;Samples;Min_cycle;Max_cycle;Signal;HPM_P1;HPM_P2
2021/07/18 00:00:11;;;;;;;6.53;4.27;;;;;;;20.38;75.29;99921.97;153928;1101;103212;-74
2021/07/18 00:03:16;;;;;;;7.60;4.50;;;;;;;20.39;75.22;99923.61;153989;1096;103113;-75
2021/07/18 00:06:21;;;;;;;6.93;4.57;;;;;;;20.24;75.49;99917.73;153934;1095;103592;-73
2021/07/18 00:09:26;;;;;;;6.53;4.90;;;;;;;20.20;75.58;99911.94;154055;1101;103216;-76
2021/07/18 00:12:31;;;;;;;6.77;5.10;;;;;;;20.23;75.96;99916.09;153951;1095;103194;-73
2021/07/18 00:15:36;;;;;;;7.20;5.10;;;;;;;20.20;75.87;99911.94;153979;1101;103143;-75
2021/07/18 00:18:41;;;;;;;6.67;5.20;;;;;;;20.17;76.20;99909.69;153982;1096;103148;-75
2021/07/18 00:21:46;;;;;;;7.90;4.80;;;;;;;20.08;76.47;99910.21;154048;1096;103259;-75
2021/07/18 00:24:51;;;;;;;5.80;5.00;;;;;;;20.05;76.62;99913.36;154015;1101;103132;-76
2021/07/18 00:27:56;;;;;;;7.08;5.20;;;;;;;19.99;76.69;99910.48;153945;1096;103145;-75
2021/07/18 00:31:01;;;;;;;6.97;4.57;;;;;;;19.90;76.89;99922.67;153968;1101;103129;-74
2021/07/18 00:34:06;;;;;;;5.63;4.47;;;;;;;19.89;76.94;99926.42;154031;1101;103166;-72
2021/07/18 00:37:11;;;;;;;7.33;4.67;;;;;;;19.79;76.99;99923.39;153998;1101;103429;-73
2021/07/18 00:40:17;;;;;;;5.37;4.60;;;;;;;19.66;77.30;99916.17;154045;1101;103198;-72
2021/07/18 00:43:22;;;;;;;6.83;4.70;;;;;;;19.59;77.31;99915.39;153965;1101;103146;-72
2021/07/18 00:46:27;;;;;;;9.80;5.10;;;;;;;19.53;77.41;99916.28;153933;1101;103123;-73
2021/07/18 00:49:32;;;;;;;8.37;5.43;;;;;;;19.51;77.33;99916.49;154037;1096;103131;-72
2021/07/18 00:52:37;;;;;;;6.80;5.13;;;;;;;19.51;77.58;99916.49;153929;1096;103556;-72
2021/07/18 00:55:44;;;;;;;7.53;5.37;;;;;;;19.46;77.55;99923.61;154015;1101;103214;-72
2021/07/18 00:58:53;;;;;;;6.83;5.10;;;;;;;19.45;77.51;99920.09;153953;1096;103199;-72
2021/07/18 01:01:59;;;;;;;7.20;5.17;;;;;;;19.44;77.63;99923.86;153823;1101;103118;-70
2021/07/18 01:05:06;;;;;;;7.47;5.20;;;;;;;19.47;77.59;99912.58;153899;1101;103161;-72
2021/07/18 01:08:12;;;;;;;8.13;4.93;;;;;;;19.51;77.96;99926.50;153854;1101;103286;-70
2021/07/18 01:11:17;;;;;;;6.90;4.80;;;;;;;19.48;78.06;99919.66;153863;1101;103180;-71
2021/07/18 01:14:22;;;;;;;5.70;4.93;;;;;;;19.46;77.96;99921.76;153823;1101;103248;-72
2021/07/18 01:17:27;;;;;;;7.20;5.50;;;;;;;19.45;78.54;99919.27;153983;1101;103110;-72
2021/07/18 01:20:33;;;;;;;7.70;5.57;;;;;;;19.38;78.13;99908.48;154015;1101;104033;-71
2021/07/18 01:23:39;;;;;;;9.47;5.30;;;;;;;19.34;78.45;99904.55;154002;1097;103273;-72
2021/07/18 01:26:45;;;;;;;6.83;5.10;;;;;;;19.33;78.37;99906.44;154020;1096;103199;-72
2021/07/18 01:29:50;;;;;;;7.27;5.43;;;;;;;19.37;78.51;99906.83;153905;1096;103139;-72
2021/07/18 01:32:55;;;;;;;8.37;6.10;;;;;;;19.37;78.34;99907.66;153941;1101;103208;-71
2021/07/18 01:36:00;;;;;;;9.43;5.63;;;;;;;19.32;78.89;99909.36;154050;1096;103109;-69
2021/07/18 01:39:09;;;;;;;6.30;5.27;;;;;;;19.33;78.76;99921.85;153819;1101;103275;-72
2021/07/18 01:42:15;;;;;;;9.67;5.80;;;;;;;19.38;78.74;99920.15;153874;1101;103215;-71
2021/07/18 01:45:20;;;;;;;10.23;5.93;;;;;;;19.47;78.56;99917.17;154084;1094;103142;-71
2021/07/18 01:48:25;;;;;;;10.90;7.33;;;;;;;19.47;79.05;99917.98;154023;1096;103142;-71
2021/07/18 01:51:30;;;;;;;13.67;7.23;;;;;;;19.48;79.04;99919.66;154060;1101;103139;-74
2021/07/18 01:54:35;;;;;;;12.23;7.73;;;;;;;19.53;79.31;99917.09;153996;1095;103199;-74
2021/07/18 01:57:41;;;;;;;12.93;8.40;;;;;;;19.54;79.47;99918.77;153990;1101;103139;-73
2021/07/18 02:00:46;;;;;;;20.23;10.47;;;;;;;19.57;80.44;99925.61;153970;1096;103132;-74
2021/07/18 02:03:52;;;;;;;19.40;10.73;;;;;;;19.60;80.22;99920.59;153969;1101;103159;-73
2021/07/18 02:06:57;;;;;;;14.50;9.73;;;;;;;19.65;80.37;99925.36;153949;1101;103131;-71
2021/07/18 02:10:02;;;;;;;15.87;9.93;;;;;;;19.66;80.92;99921.59;153965;1101;103256;-72
2021/07/18 02:13:07;;;;;;;12.87;9.07;;;;;;;19.65;80.85;99924.51;154058;1101;103105;-73
2021/07/18 02:16:12;;;;;;;14.53;8.77;;;;;;;19.72;80.79;99926.14;153933;1101;103195;-71
2021/07/18 02:19:17;;;;;;;18.40;9.57;;;;;;;19.80;81.09;99935.86;153995;1101;103143;-73
2021/07/18 02:22:42;;;;;;;19.63;10.73;;;;;;;19.75;81.39;99933.83;153968;1101;103189;-74
2021/07/18 02:25:47;;;;;;;16.87;10.03;;;;;;;19.76;82.13;99931.95;153985;1101;103217;-73
2021/07/18 02:28:52;;;;;;;13.97;9.80;;;;;;;19.70;83.12;99935.52;153942;1096;103114;-74
2021/07/18 02:31:57;;;;;;;14.47;10.10;;;;;;;19.70;81.81;99938.22;153946;1101;103206;-70
2021/07/18 02:35:05;;;;;;;14.30;10.45;;;;;;;19.72;82.22;99946.98;153907;1101;103195;-72
2021/07/18 02:38:10;;;;;;;16.17;10.53;;;;;;;19.72;82.45;99939.68;154033;1096;103147;-73
2021/07/18 02:41:16;;;;;;;16.90;11.33;;;;;;;19.74;82.73;99940.28;154022;1101;103477;-72
2021/07/18 02:44:21;;;;;;;19.67;11.53;;;;;;;19.75;82.38;99943.84;153994;1096;103589;-75
2021/07/18 02:47:25;;;;;;;15.97;12.07;;;;;;;19.76;82.80;99946.30;153954;1101;103132;-73
2021/07/18 02:50:31;;;;;;;19.93;11.30;;;;;;;19.81;83.05;99945.66;153953;1096;103154;-73
2021/07/18 02:53:36;;;;;;;17.00;11.40;;;;;;;19.83;83.40;99948.16;153958;1101;103131;-73
2021/07/18 02:56:41;;;;;;;18.57;11.30;;;;;;;19.84;84.23;99950.61;153963;1101;103289;-72
2021/07/18 02:59:46;;;;;;;15.93;11.13;;;;;;;19.86;84.19;99959.38;153940;1101;103136;-73
2021/07/18 03:02:51;;;;;;;16.80;12.00;;;;;;;19.91;84.61;99945.16;153972;1101;103104;-72
2021/07/18 03:05:56;;;;;;;19.80;13.00;;;;;;;19.93;84.27;99949.29;153931;1096;103135;-71
2021/07/18 03:09:01;;;;;;;19.23;14.43;;;;;;;19.92;84.03;99947.65;154056;1096;103168;-71
2021/07/18 03:12:07;;;;;;;21.00;13.37;;;;;;;19.93;85.89;99948.47;153946;1095;103271;-72
2021/07/18 03:15:15;;;;;;;21.50;13.93;;;;;;;19.94;85.40;99959.09;153976;1101;103100;-71
2021/07/18 03:18:20;;;;;;;21.80;13.55;;;;;;;20.02;84.20;99971.52;153847;1096;103575;-70
2021/07/18 03:21:25;;;;;;;18.80;13.30;;;;;;;20.15;84.64;99975.97;153801;1101;104157;-71
2021/07/18 03:24:30;;;;;;;23.60;14.00;;;;;;;20.23;83.51;99972.98;153827;1096;103222;-72
2021/07/18 03:27:36;;;;;;;23.77;14.60;;;;;;;20.32;83.89;99977.07;153933;1096;103278;-71
2021/07/18 03:30:41;;;;;;;22.93;14.57;;;;;;;20.36;84.90;99972.86;154036;1096;103125;-71
2021/07/18 03:33:46;;;;;;;23.53;15.57;;;;;;;20.41;83.96;99977.59;153934;1101;103131;-71
2021/07/18 03:36:51;;;;;;;21.37;14.53;;;;;;;20.43;83.82;99980.08;153975;1101;103250;-72
2021/07/18 03:39:56;;;;;;;22.13;15.10;;;;;;;20.44;84.02;99979.02;153977;1096;103143;-72
2021/07/18 03:43:01;;;;;;;20.00;15.20;;;;;;;20.45;84.35;99988.81;153963;1095;103231;-72
2021/07/18 03:46:06;;;;;;;20.53;13.83;;;;;;;20.47;84.20;99984.00;153983;1101;103559;-71
2021/07/18 03:49:11;;;;;;;18.53;13.37;;;;;;;20.51;83.80;99979.78;153948;1096;103234;-71
2021/07/18 03:52:16;;;;;;;17.70;13.57;;;;;;;20.59;83.90;99979.47;153985;1101;103262;-72
2021/07/18 03:55:21;;;;;;;19.70;14.23;;;;;;;20.66;83.94;99990.29;153941;1101;103193;-72
2021/07/18 03:58:26;;;;;;;19.27;13.87;;;;;;;20.63;84.05;99996.15;153895;1096;103222;-72
2021/07/18 04:01:31;;;;;;;16.23;12.97;;;;;;;20.56;84.18;99985.36;153987;1101;103134;-72
2021/07/18 04:04:36;;;;;;;18.53;13.67;;;;;;;20.54;84.85;99990.19;153997;1101;103192;-71
2021/07/18 04:07:41;;;;;;;18.23;12.67;;;;;;;20.55;84.48;99986.41;153984;1096;103135;-72
2021/07/18 04:10:46;;;;;;;16.07;12.43;;;;;;;20.58;84.58;99988.67;153979;1096;103195;-72
2021/07/18 04:13:51;;;;;;;17.30;12.77;;;;;;;20.58;84.31;99988.67;153992;1096;103371;-72
2021/07/18 04:16:56;;;;;;;15.97;12.60;;;;;;;20.66;84.21;99991.11;153971;1096;103143;-70
2021/07/18 04:20:01;;;;;;;14.97;13.10;;;;;;;20.71;84.64;99996.69;153906;1101;103128;-70
2021/07/18 04:23:07;;;;;;;15.90;13.07;;;;;;;20.72;84.05;99992.91;153807;1101;103103;-72
2021/07/18 04:26:12;;;;;;;16.00;12.37;;;;;;;20.77;83.76;99987.64;154015;1101;103128;-71
2021/07/18 04:29:15;;;;;;;15.60;12.20;;;;;;;;;;153849;1101;103283;-72
2021/07/18 04:32:20;;;;;;;14.43;11.83;;;;;;;21.05;83.61;99993.57;154029;1101;103608;-72
2021/07/18 04:35:25;;;;;;;13.63;11.30;;;;;;;21.07;83.79;99991.45;153937;1101;103139;-73
2021/07/18 04:38:30;;;;;;;17.77;12.20;;;;;;;21.01;83.55;99985.05;153962;1101;103202;-72
2021/07/18 04:41:37;;;;;;;16.57;13.00;;;;;;;20.95;83.93;99988.69;153813;1096;103193;-71
2021/07/18 04:44:42;;;;;;;15.23;11.90;;;;;;;20.89;84.21;99984.18;153830;1101;103266;-72
2021/07/18 04:47:48;;;;;;;21.90;12.30;;;;;;;20.81;84.00;99979.07;153823;1096;103110;-72
2021/07/18 04:50:53;;;;;;;16.63;12.20;;;;;;;20.81;84.57;99977.18;153825;1101;103153;-71
2021/07/18 04:53:58;;;;;;;15.05;11.55;;;;;;;20.85;84.29;99982.98;153816;1101;103156;-71
2021/07/18 04:57:01;;;;;;;15.80;12.33;;;;;;;;;;153965;1095;103208;-72
2021/07/18 05:00:08;;;;;;;20.83;12.87;;;;;;;20.95;84.31;99977.84;153956;1096;103118;-72
2021/07/18 05:03:13;;;;;;;16.70;13.17;;;;;;;20.95;84.20;99973.23;154004;1101;103575;-70
2021/07/18 05:06:18;;;;;;;16.73;12.47;;;;;;;20.98;84.53;99982.81;153822;1101;103190;-72
2021/07/18 05:09:23;;;;;;;14.50;11.97;;;;;;;21.04;83.93;99987.33;153931;1096;103139;-73
2021/07/18 05:12:28;;;;;;;14.20;11.77;;;;;;;21.16;84.08;99990.09;153964;1095;103198;-72
2021/07/18 05:15:34;;;;;;;18.33;11.83;;;;;;;21.18;83.99;99987.97;153976;1096;103265;-72
2021/07/18 05:18:39;;;;;;;17.85;12.25;;;;;;;21.12;83.92;99997.03;154073;1101;103137;-72
2021/07/18 05:21:44;;;;;;;13.07;11.63;;;;;;;21.10;84.14;99985.58;154048;1094;103177;-73
2021/07/18 05:24:50;;;;;;;14.43;11.50;;;;;;;21.23;84.66;99981.84;154084;1101;103136;-72
2021/07/18 05:27:55;;;;;;;14.37;11.17;;;;;;;21.32;84.03;99981.28;154022;1101;103124;-75
2021/07/18 05:31:00;;;;;;;13.33;10.77;;;;;;;21.43;83.67;99989.72;153954;1096;103284;-73
2021/07/18 05:34:05;;;;;;;12.17;10.87;;;;;;;21.52;83.65;99993.80;153971;1101;103177;-76
2021/07/18 05:37:11;;;;;;;13.90;10.75;;;;;;;21.61;83.43;99996.99;154007;1096;103220;-70
2021/07/18 05:40:17;;;;;;;15.63;12.97;;;;;;;21.68;83.06;99997.73;153797;1096;103471;-69
2021/07/18 05:43:22;;;;;;;14.70;11.47;;;;;;;21.67;83.04;99998.77;153854;1095;103153;-70
2021/07/18 05:46:27;;;;;;;12.37;11.13;;;;;;;21.66;82.85;99991.70;153833;1096;103505;-70
2021/07/18 05:49:32;;;;;;;12.17;10.97;;;;;;;21.64;82.94;99993.83;153869;1095;103189;-72
2021/07/18 05:52:38;;;;;;;14.33;12.13;;;;;;;21.70;82.99;99995.61;153855;1101;103128;-70
2021/07/18 05:55:43;;;;;;;16.03;13.43;;;;;;;21.74;82.77;99996.79;153832;1096;103131;-69
2021/07/18 05:58:48;;;;;;;16.15;12.00;;;;;;;21.73;82.72;100000.58;153859;1101;103125;-69
2021/07/18 06:01:53;;;;;;;13.57;11.63;;;;;;;21.76;82.52;100003.64;153817;1096;103142;-69
2021/07/18 06:04:58;;;;;;;14.60;11.93;;;;;;;21.84;82.74;99999.75;153856;1101;103142;-70
2021/07/18 06:08:03;;;;;;;14.37;12.97;;;;;;;21.82;82.23;99991.02;153813;1101;103214;-70
2021/07/18 06:11:08;;;;;;;14.27;11.70;;;;;;;21.92;82.48;99994.00;153952;1096;103109;-68
2021/07/18 06:14:13;;;;;;;13.23;11.33;;;;;;;22.11;82.21;100004.75;153803;1096;103141;-68
2021/07/18 06:17:18;;;;;;;13.50;12.10;;;;;;;22.24;81.88;100006.42;153795;1101;103280;-70
2021/07/18 06:20:23;;;;;;;13.20;11.70;;;;;;;22.24;81.58;100007.23;154429;1101;103194;-71
2021/07/18 06:23:28;;;;;;;13.30;11.13;;;;;;;22.29;81.98;100004.68;154026;1101;103246;-72
2021/07/18 06:26:33;;;;;;;12.00;10.70;;;;;;;22.39;80.95;100014.14;153752;1101;103148;-72
2021/07/18 06:29:38;;;;;;;14.63;11.27;;;;;;;22.31;80.76;100013.42;154077;1101;103137;-71
2021/07/18 06:32:44;;;;;;;14.03;11.97;;;;;;;22.25;80.70;100008.94;153867;1101;103125;-73
2021/07/18 06:35:49;;;;;;;13.03;11.33;;;;;;;22.21;80.82;100007.73;154180;1101;103210;-71
2021/07/18 06:38:56;;;;;;;12.07;10.80;;;;;;;22.20;81.17;100006.06;154054;1096;103158;-71
2021/07/18 06:42:02;;;;;;;11.50;10.30;;;;;;;22.15;80.89;100008.65;154032;1101;103150;-74
2021/07/18 06:45:09;;;;;;;10.53;9.43;;;;;;;22.16;81.05;100011.13;154080;1093;103230;-74
2021/07/18 06:48:14;;;;;;;12.87;11.37;;;;;;;22.21;81.23;100004.16;154145;1096;103550;-72
2021/07/18 06:51:19;;;;;;;13.27;10.87;;;;;;;22.27;81.14;100012.25;154157;1093;103115;-72
2021/07/18 06:54:24;;;;;;;12.10;10.80;;;;;;;22.40;81.21;100013.06;154124;1101;103142;-72
2021/07/18 06:57:29;;;;;;;10.95;9.70;;;;;;;22.43;81.03;100007.98;153874;1101;103134;-70
2021/07/18 07:00:34;;;;;;;11.83;10.47;;;;;;;22.40;80.72;100015.78;153845;1096;103147;-69
2021/07/18 07:03:39;;;;;;;18.10;10.87;;;;;;;22.37;80.77;100016.27;153794;1101;103359;-70
2021/07/18 07:06:44;;;;;;;13.60;10.17;;;;;;;22.41;81.08;100025.60;154080;1101;103128;-76
2021/07/18 07:09:49;;;;;;;12.23;9.77;;;;;;;22.46;80.79;100033.86;154018;1096;103123;-76
2021/07/18 07:12:55;;;;;;;10.90;9.80;;;;;;;22.48;80.36;100029.01;153998;1101;103185;-70
2021/07/18 07:16:00;;;;;;;11.80;10.30;;;;;;;22.62;80.61;100026.89;153807;1096;103563;-70
2021/07/18 07:19:05;;;;;;;12.30;11.00;;;;;;;22.69;80.14;100028.42;153845;1101;103190;-70
2021/07/18 07:22:11;;;;;;;11.03;9.90;;;;;;;22.67;80.33;100027.83;153847;1101;103198;-68
2021/07/18 07:25:18;;;;;;;12.97;10.27;;;;;;;22.74;80.06;100025.79;153842;1093;103157;-68
2021/07/18 07:28:23;;;;;;;9.90;8.80;;;;;;;22.79;80.02;100024.24;153812;1093;103165;-68
2021/07/18 07:31:28;;;;;;;11.97;9.90;;;;;;;22.86;80.11;100012.16;153941;1094;103163;-68
2021/07/18 07:34:33;;;;;;;11.70;10.40;;;;;;;23.04;79.58;100013.13;153727;1101;103500;-68
2021/07/18 07:37:38;;;;;;;11.97;10.37;;;;;;;23.12;79.58;100018.17;153743;1101;104456;-71
2021/07/18 07:40:43;;;;;;;11.13;9.73;;;;;;;23.24;79.74;100020.86;153975;1093;103115;-73
2021/07/18 07:43:48;;;;;;;10.10;8.73;;;;;;;23.41;78.43;100027.17;153881;1101;103218;-70
2021/07/18 07:46:53;;;;;;;9.77;8.87;;;;;;;23.58;78.38;100020.95;153794;1094;103119;-75
2021/07/18 07:49:59;;;;;;;10.43;9.33;;;;;;;23.79;78.21;100022.99;153975;1101;103256;-70
2021/07/18 07:53:05;;;;;;;10.57;9.13;;;;;;;23.82;76.05;100027.11;153900;1101;103567;-70
2021/07/18 07:56:11;;;;;;;9.00;7.50;;;;;;;23.72;77.30;100023.10;154009;1093;103187;-69
2021/07/18 07:59:16;;;;;;;8.63;7.77;;;;;;;23.77;77.70;100027.83;153812;1101;103144;-74
2021/07/18 08:02:21;;;;;;;11.50;8.90;;;;;;;23.88;77.88;100029.70;153975;1093;103192;-70
2021/07/18 08:05:26;;;;;;;9.97;8.97;;;;;;;24.10;77.17;100034.41;153833;1101;103293;-70
2021/07/18 08:08:31;;;;;;;10.35;9.05;;;;;;;24.32;77.76;100025.46;153834;1093;103196;-71
2021/07/18 08:11:37;;;;;;;9.17;8.23;;;;;;;24.71;75.55;100020.86;153862;1101;103134;-71
2021/07/18 08:14:42;;;;;;;8.87;7.97;;;;;;;24.74;73.30;100025.82;153918;1101;103200;-69
2021/07/18 08:17:47;;;;;;;10.17;8.73;;;;;;;24.79;73.32;100028.63;153893;1101;103579;-72
2021/07/18 08:20:53;;;;;;;9.47;8.47;;;;;;;24.62;72.23;100025.94;154067;1096;103365;-73
2021/07/18 08:23:58;;;;;;;9.57;8.57;;;;;;;24.71;75.42;100028.22;154032;1094;103169;-73
2021/07/18 08:27:03;;;;;;;11.33;8.33;;;;;;;24.94;74.80;100033.44;153952;1096;103125;-73
2021/07/18 08:30:11;;;;;;;9.97;8.23;;;;;;;24.96;74.50;100020.39;153959;1101;103129;-71
2021/07/18 08:33:16;;;;;;;9.23;7.87;;;;;;;25.00;73.29;100021.52;154037;1096;103215;-73
2021/07/18 08:36:20;;;;;;;8.50;7.70;;;;;;;25.19;71.40;100032.09;153945;1096;103147;-75
2021/07/18 08:39:25;;;;;;;8.57;7.67;;;;;;;25.22;72.87;100035.18;154109;1101;103473;-72
2021/07/18 08:42:31;;;;;;;9.33;8.07;;;;;;;25.21;71.17;100030.78;154411;1101;103195;-74
2021/07/18 08:45:36;;;;;;;8.43;7.53;;;;;;;25.25;70.83;100034.68;154394;1101;103501;-75
2021/07/18 08:48:41;;;;;;;8.57;7.57;;;;;;;25.07;69.90;100027.59;154123;1101;103242;-73
2021/07/18 08:51:46;;;;;;;8.17;7.00;;;;;;;25.07;70.90;100027.59;154076;1101;104294;-75
2021/07/18 08:54:52;;;;;;;7.20;6.47;;;;;;;25.11;72.11;100035.29;154060;1101;103222;-76
2021/07/18 08:57:58;;;;;;;10.80;7.73;;;;;;;25.26;70.10;100024.58;154177;1096;103194;-75
2021/07/18 09:01:03;;;;;;;7.47;6.70;;;;;;;25.40;71.53;100031.27;154267;1096;103124;-73
2021/07/18 09:04:08;;;;;;;8.70;6.90;;;;;;;25.60;70.08;100029.86;154169;1096;103110;-74
2021/07/18 09:07:18;;;;;;;7.70;6.90;;;;;;;25.50;70.58;100037.93;154199;1101;103281;-74
2021/07/18 09:10:24;;;;;;;7.63;6.83;;;;;;;25.53;66.50;100040.16;153999;1101;103224;-74
2021/07/18 09:13:29;;;;;;;8.23;6.27;;;;;;;25.55;64.62;100044.27;154110;1101;103219;-75
2021/07/18 09:16:37;;;;;;;7.07;6.37;;;;;;;25.66;70.06;100037.83;154391;1101;103195;-73
2021/07/18 09:19:43;;;;;;;8.87;6.80;;;;;;;25.80;67.85;100030.03;154160;1096;103197;-71
2021/07/18 09:22:48;;;;;;;8.10;7.40;;;;;;;25.78;68.11;100032.20;153931;1101;103374;-73
2021/07/18 09:26:14;;;;;;;8.10;7.30;;;;;;;25.81;69.41;100031.69;154121;1095;103218;-76
2021/07/18 09:29:27;;;;;;;7.33;6.60;;;;;;;25.94;68.64;100024.98;154073;1101;103262;-75
2021/07/18 09:32:34;;;;;;;7.20;6.50;;;;;;;26.06;68.08;100027.56;154109;1101;103187;-76
2021/07/18 09:35:39;;;;;;;6.87;6.20;;;;;;;26.12;65.95;100025.70;154186;1101;103163;-73
2021/07/18 09:38:45;;;;;;;6.37;5.77;;;;;;;26.17;65.54;100021.06;154071;1101;103302;-74
2021/07/18 09:41:49;;;;;;;6.37;5.70;;;;;;;26.17;64.79;100023.80;154102;1101;103201;-74
2021/07/18 09:44:55;;;;;;;6.83;5.40;;;;;;;26.23;64.90;100027.39;154195;1101;103127;-73
2021/07/18 09:48:02;;;;;;;6.30;5.80;;;;;;;26.36;63.23;100032.41;154177;1101;103106;-75
2021/07/18 09:51:12;;;;;;;6.70;6.10;;;;;;;26.62;64.57;100022.48;154235;1096;103163;-75
2021/07/18 09:54:19;;;;;;;6.50;5.90;;;;;;;26.78;58.64;100019.83;154130;1101;103099;-76
2021/07/18 09:57:40;;;;;;;7.00;6.30;;;;;;;26.63;64.18;100021.38;154190;1101;103191;-74
2021/07/18 10:00:45;;;;;;;6.27;5.67;;;;;;;26.60;61.87;100038.35;154097;1096;103200;-76
2021/07/18 10:03:52;;;;;;;6.20;5.70;;;;;;;26.49;61.75;100036.61;154054;1101;103128;-79
2021/07/18 10:07:09;;;;;;;6.60;5.97;;;;;;;26.59;62.50;100025.75;154193;1101;103115;-71
2021/07/18 10:10:14;;;;;;;7.63;6.17;;;;;;;26.67;62.79;100027.16;154102;1095;103268;-71
2021/07/18 10:13:19;;;;;;;6.43;5.87;;;;;;;26.76;61.35;100016.53;154020;1096;103619;-70
2021/07/18 10:16:27;;;;;;;5.93;5.37;;;;;;;26.83;63.46;100012.47;153948;1101;103196;-71
2021/07/18 10:19:34;;;;;;;5.77;5.27;;;;;;;27.09;61.58;100022.70;153942;1101;103122;-72
2021/07/18 10:22:39;;;;;;;6.33;5.73;;;;;;;27.25;61.60;100024.41;154040;1094;103194;-70
2021/07/18 10:25:46;;;;;;;5.73;5.10;;;;;;;27.23;61.17;100023.83;153871;1101;103270;-76
2021/07/18 10:28:52;;;;;;;7.57;5.13;;;;;;;27.08;61.44;100030.09;153994;1101;103128;-72
2021/07/18 10:32:02;;;;;;;6.73;5.40;;;;;;;27.02;59.88;100029.25;153869;1096;103140;-69
2021/07/18 10:35:10;;;;;;;7.93;5.87;;;;;;;27.06;61.15;100028.70;153903;1096;103128;-69
2021/07/18 10:38:20;;;;;;;6.63;5.97;;;;;;;27.03;58.94;100033.63;154058;1101;103179;-74
2021/07/18 10:41:45;;;;;;;7.40;6.45;;;;;;;27.11;61.56;100028.73;153902;1096;103127;-69
2021/07/18 10:44:51;;;;;;;6.13;5.60;;;;;;;27.10;59.53;100024.33;153905;1096;103240;-69
2021/07/18 10:48:05;;;;;;;6.90;6.20;;;;;;;26.93;61.03;100019.90;153753;1096;103122;-71
2021/07/18 10:51:10;;;;;;;6.60;6.00;;;;;;;26.82;60.00;100020.94;154518;1101;103116;-79
2021/07/18 10:54:17;;;;;;;6.43;5.67;;;;;;;26.81;60.68;100016.54;153986;1101;103199;-70
2021/07/18 10:57:28;;;;;;;6.33;5.73;;;;;;;26.86;59.87;100019.31;154052;1101;103218;-69
2021/07/18 11:00:32;;;;;;;;;;;;;;;26.95;60.85;100014.16;153919;1101;103198;-69
2021/07/18 11:03:39;;;;;;;6.27;5.67;;;;;;;27.20;60.39;100003.28;153781;1101;103196;-69
2021/07/18 11:06:45;;;;;;;6.20;5.60;;;;;;;27.36;59.60;100001.42;154252;1096;103202;-69
2021/07/18 11:09:51;;;;;;;6.20;5.60;;;;;;;27.19;56.18;100007.10;154019;1101;103147;-69
2021/07/18 11:13:10;;;;;;;5.90;5.30;;;;;;;27.06;57.58;100004.90;153870;1101;103282;-70
2021/07/18 11:16:48;;;;;;;5.80;5.10;;;;;;;27.06;55.70;100004.05;153891;1101;103571;-69
2021/07/18 11:20:04;;;;;;;5.83;5.23;;;;;;;27.17;56.27;100003.81;154045;1101;103134;-69
2021/07/18 11:23:10;;;;;;;6.23;5.63;;;;;;;27.22;55.32;99994.80;153926;1101;103169;-69
2021/07/18 11:26:19;;;;;;;6.63;6.03;;;;;;;27.31;57.53;100000.59;153931;1101;103216;-69
2021/07/18 11:29:36;;;;;;;6.00;5.50;;;;;;;27.34;55.63;100009.09;153888;1096;103186;-70
2021/07/18 11:32:45;;;;;;;6.10;5.50;;;;;;;27.33;54.29;100012.95;153911;1101;103206;-70
2021/07/18 11:35:55;;;;;;;7.13;6.47;;;;;;;27.34;56.80;100003.62;153871;1096;103509;-70
2021/07/18 11:39:01;;;;;;;6.40;5.90;;;;;;;27.39;56.20;100002.82;153861;1096;103153;-70
2021/07/18 11:42:10;;;;;;;7.17;6.47;;;;;;;27.27;54.90;99996.75;153878;1101;103191;-70
2021/07/18 11:45:15;;;;;;;6.90;6.30;;;;;;;27.30;56.34;99997.03;153868;1097;103291;-70
2021/07/18 11:48:22;;;;;;;17.90;16.00;;;;;;;27.30;55.53;99988.00;153932;1097;103147;-70
2021/07/18 11:51:29;;;;;;;48.70;42.05;;;;;;;27.21;56.42;99990.41;153856;1101;103199;-70
2021/07/18 11:54:34;;;;;;;12.63;11.33;;;;;;;27.24;56.03;99992.61;153822;1101;103152;-70
2021/07/18 11:57:42;;;;;;;8.33;7.50;;;;;;;27.27;54.84;99986.61;153879;1096;103531;-69
2021/07/18 12:00:59;;;;;;;10.97;9.87;;;;;;;27.17;55.18;99979.16;153832;1101;103196;-70
2021/07/18 12:04:07;;;;;;;7.30;6.60;;;;;;;27.09;55.79;99979.69;153878;1101;103202;-69
2021/07/18 12:07:14;;;;;;;8.37;7.57;;;;;;;26.97;56.39;99977.20;153820;1101;103134;-69
2021/07/18 12:10:23;;;;;;;36.27;30.47;;;;;;;27.03;55.98;99987.06;153877;1101;103317;-69
2021/07/18 12:13:37;;;;;;;11.77;10.57;;;;;;;27.12;55.71;99978.32;153882;1101;103195;-69
2021/07/18 12:16:44;;;;;;;7.67;6.43;;;;;;;27.13;54.62;99977.24;153955;1101;103272;-69
2021/07/18 12:19:49;;;;;;;13.00;11.75;;;;;;;27.27;55.90;99961.95;153919;1101;103234;-69
2021/07/18 12:22:54;;;;;;;12.83;11.57;;;;;;;27.32;54.09;99966.64;153825;1096;103202;-69
2021/07/18 12:26:00;;;;;;;13.33;11.87;;;;;;;27.42;55.58;99961.16;153851;1096;103136;-69
2021/07/18 12:29:06;;;;;;;7.70;6.65;;;;;;;27.37;52.21;99959.25;153909;1101;103196;-69
2021/07/18 12:32:12;;;;;;;7.73;6.93;;;;;;;27.29;53.69;99951.58;153924;1095;103147;-69
2021/07/18 12:35:17;;;;;;;8.60;7.80;;;;;;;27.23;54.08;99956.19;153844;1101;103136;-70
2021/07/18 12:38:24;;;;;;;9.60;8.70;;;;;;;27.15;53.79;99953.14;153828;1101;103219;-70
2021/07/18 12:41:29;;;;;;;6.50;5.90;;;;;;;27.13;52.08;99953.41;153834;1095;103149;-69
2021/07/18 12:44:37;;;;;;;5.97;5.47;;;;;;;27.10;52.73;99948.48;153815;1097;103214;-70
2021/07/18 12:47:44;;;;;;;5.90;5.33;;;;;;;27.13;52.71;99949.86;153830;1097;103219;-70
2021/07/18 12:50:49;;;;;;;5.40;4.90;;;;;;;27.09;52.34;99938.61;153919;1101;103228;-70
2021/07/18 12:53:57;;;;;;;6.40;5.80;;;;;;;27.11;51.81;99938.34;153818;1095;103183;-70
2021/07/18 12:57:03;;;;;;;5.77;5.20;;;;;;;27.05;52.24;99933.96;153853;1101;103218;-69
2021/07/18 13:00:11;;;;;;;5.83;5.20;;;;;;;27.07;51.04;99954.50;153850;1101;103174;-69
2021/07/18 13:03:21;;;;;;;6.03;5.20;;;;;;;27.09;53.07;99946.02;153878;1097;103262;-69
2021/07/18 13:06:26;;;;;;;6.30;5.70;;;;;;;27.11;50.71;99943.83;153891;1101;103075;-70
2021/07/18 13:09:31;;;;;;;5.93;5.30;;;;;;;27.15;51.16;99951.22;153851;1097;103134;-70
2021/07/18 13:12:36;;;;;;;7.33;5.73;;;;;;;27.10;51.74;99945.75;153825;1101;103225;-69
2021/07/18 13:15:41;;;;;;;5.85;5.30;;;;;;;27.03;52.21;99939.70;153844;1097;103191;-70
2021/07/18 13:18:46;;;;;;;6.40;5.30;;;;;;;27.00;50.77;99948.45;153863;1101;103187;-70
2021/07/18 13:22:01;;;;;;;6.23;5.63;;;;;;;27.07;52.74;99937.25;153875;1101;103177;-69
2021/07/18 13:25:24;;;;;;;5.63;5.07;;;;;;;27.16;52.54;99936.45;153867;1097;103118;-69
2021/07/18 13:28:29;;;;;;;6.20;5.60;;;;;;;27.31;52.56;99921.98;153860;1101;103141;-69
2021/07/18 13:31:34;;;;;;;6.65;5.95;;;;;;;27.38;51.77;99910.75;153887;1101;103150;-69
2021/07/18 13:34:40;;;;;;;7.43;6.00;;;;;;;27.39;53.08;99921.44;153854;1101;103256;-70
2021/07/18 13:37:53;;;;;;;7.20;5.77;;;;;;;27.40;52.82;99914.03;153979;1096;103131;-70
2021/07/18 13:41:08;;;;;;;5.40;4.90;;;;;;;27.43;53.45;99908.02;153817;1096;103233;-69
2021/07/18 13:44:13;;;;;;;7.10;5.95;;;;;;;27.42;53.33;99900.88;153855;1101;103314;-69
2021/07/18 13:47:18;;;;;;;6.37;5.77;;;;;;;27.36;53.25;99901.98;153968;1096;103224;-70
2021/07/18 13:50:23;;;;;;;7.33;5.93;;;;;;;27.43;52.28;99905.28;153840;1101;103495;-70
2021/07/18 13:53:29;;;;;;;6.63;6.03;;;;;;;27.53;52.60;99907.20;153887;1097;103151;-70
2021/07/18 13:56:34;;;;;;;6.80;5.50;;;;;;;27.62;52.01;99900.08;153876;1096;103135;-69
2021/07/18 13:59:39;;;;;;;7.50;5.93;;;;;;;27.90;52.06;99895.13;153831;1101;103253;-70
2021/07/18 14:02:44;;;;;;;7.13;5.93;;;;;;;28.03;51.06;99883.58;153852;1096;103259;-71
2021/07/18 14:05:49;;;;;;;7.07;6.23;;;;;;;28.14;51.76;99884.39;153833;1095;103263;-69